Amboy, California
Current Conditions -  °F | °C
As of 1:56 AM on Sunday 25 Jan 2015 (Local Time) from KNXP Reporting Station
Clear Clear  
Wind Chill: 45°   Ceiling: Unl
Heat Index: 49°   Visibility: 10mi
Dew Point: 19°   Wind: 8mph
Humidity: 31%   Direction: 250°WSW
Pressure: 30.25"   Gusts: NA
Location:  34.56°N, 115.75°W
Report Text: KNXP 250956Z AUTO 25007KT 10SM CLR 09/M07 A3025 RMK AO2 SLP223 T00941072 $
Loading
Personal Weather Stations






























Interactive Weather Map New forecast layout! Learn more

10-Day Weather Forecast

Advertisements
Track Severe Weather on mobile